sensor_id;sensor_type;location;lat;lon;timestamp;P1;durP1;ratioP1;P2;durP2;ratioP2
51006;SDS011;37034;47.886;-3.904;2023-07-08T00:00:08;10.63;;;4.05;;
51006;SDS011;37034;47.886;-3.904;2023-07-08T00:02:42;10.98;;;4.07;;
51006;SDS011;37034;47.886;-3.904;2023-07-08T00:05:11;10.57;;;4.70;;
51006;SDS011;37034;47.886;-3.904;2023-07-08T00:07:39;11.88;;;4.03;;
51006;SDS011;37034;47.886;-3.904;2023-07-08T00:10:12;10.30;;;3.85;;
51006;SDS011;37034;47.886;-3.904;2023-07-08T00:12:41;11.35;;;4.60;;
51006;SDS011;37034;47.886;-3.904;2023-07-08T00:15:07;9.38;;;3.60;;
51006;SDS011;37034;47.886;-3.904;2023-07-08T00:17:33;8.57;;;4.00;;
51006;SDS011;37034;47.886;-3.904;2023-07-08T00:19:59;12.38;;;4.05;;
51006;SDS011;37034;47.886;-3.904;2023-07-08T00:22:25;10.23;;;3.75;;
51006;SDS011;37034;47.886;-3.904;2023-07-08T00:24:50;10.30;;;3.85;;
51006;SDS011;37034;47.886;-3.904;2023-07-08T00:27:16;10.07;;;4.32;;
51006;SDS011;37034;47.886;-3.904;2023-07-08T00:29:42;9.18;;;4.35;;
51006;SDS011;37034;47.886;-3.904;2023-07-08T00:34:35;13.68;;;3.88;;
51006;SDS011;37034;47.886;-3.904;2023-07-08T00:37:01;11.05;;;3.72;;
51006;SDS011;37034;47.886;-3.904;2023-07-08T00:39:30;10.25;;;3.67;;
51006;SDS011;37034;47.886;-3.904;2023-07-08T00:41:59;11.57;;;3.85;;
51006;SDS011;37034;47.886;-3.904;2023-07-08T00:44:26;9.95;;;3.83;;
51006;SDS011;37034;47.886;-3.904;2023-07-08T00:47:02;12.18;;;4.07;;
51006;SDS011;37034;47.886;-3.904;2023-07-08T00:49:37;9.60;;;3.47;;
51006;SDS011;37034;47.886;-3.904;2023-07-08T00:52:15;14.95;;;4.63;;
51006;SDS011;37034;47.886;-3.904;2023-07-08T00:54:50;16.35;;;4.07;;
51006;SDS011;37034;47.886;-3.904;2023-07-08T00:57:21;14.85;;;3.83;;
51006;SDS011;37034;47.886;-3.904;2023-07-08T00:59:53;12.82;;;4.40;;
51006;SDS011;37034;47.886;-3.904;2023-07-08T01:02:24;11.77;;;4.05;;
51006;SDS011;37034;47.886;-3.904;2023-07-08T01:04:55;12.18;;;3.92;;
51006;SDS011;37034;47.886;-3.904;2023-07-08T01:07:26;7.47;;;3.65;;
51006;SDS011;37034;47.886;-3.904;2023-07-08T01:09:57;11.32;;;3.53;;
51006;SDS011;37034;47.886;-3.904;2023-07-08T01:12:31;12.38;;;3.50;;
51006;SDS011;37034;47.886;-3.904;2023-07-08T01:15:02;12.10;;;3.95;;
51006;SDS011;37034;47.886;-3.904;2023-07-08T01:17:29;14.57;;;3.58;;
51006;SDS011;37034;47.886;-3.904;2023-07-08T01:19:57;8.10;;;3.08;;
51006;SDS011;37034;47.886;-3.904;2023-07-08T01:22:38;12.68;;;3.60;;
51006;SDS011;37034;47.886;-3.904;2023-07-08T01:25:04;11.20;;;3.60;;
51006;SDS011;37034;47.886;-3.904;2023-07-08T01:27:34;19.08;;;4.05;;
51006;SDS011;37034;47.886;-3.904;2023-07-08T01:30:03;11.90;;;3.50;;
51006;SDS011;37034;47.886;-3.904;2023-07-08T01:32:30;16.25;;;3.83;;
51006;SDS011;37034;47.886;-3.904;2023-07-08T01:34:59;14.80;;;3.78;;
51006;SDS011;37034;47.886;-3.904;2023-07-08T01:37:32;12.38;;;3.38;;
51006;SDS011;37034;47.886;-3.904;2023-07-08T01:42:55;12.05;;;3.70;;
51006;SDS011;37034;47.886;-3.904;2023-07-08T01:45:22;11.80;;;3.45;;
51006;SDS011;37034;47.886;-3.904;2023-07-08T01:47:53;9.90;;;3.80;;
51006;SDS011;37034;47.886;-3.904;2023-07-08T01:50:23;11.90;;;3.25;;
51006;SDS011;37034;47.886;-3.904;2023-07-08T01:52:50;8.30;;;3.50;;
51006;SDS011;37034;47.886;-3.904;2023-07-08T01:55:21;14.82;;;3.45;;
51006;SDS011;37034;47.886;-3.904;2023-07-08T01:57:51;11.40;;;3.33;;
51006;SDS011;37034;47.886;-3.904;2023-07-08T02:00:20;10.80;;;3.72;;
51006;SDS011;37034;47.886;-3.904;2023-07-08T02:02:47;24.63;;;4.20;;
51006;SDS011;37034;47.886;-3.904;2023-07-08T02:05:13;15.73;;;3.53;;
51006;SDS011;37034;47.886;-3.904;2023-07-08T02:07:39;13.68;;;4.13;;
51006;SDS011;37034;47.886;-3.904;2023-07-08T02:10:05;18.10;;;3.40;;
51006;SDS011;37034;47.886;-3.904;2023-07-08T02:14:59;10.73;;;3.47;;
51006;SDS011;37034;47.886;-3.904;2023-07-08T02:17:25;10.93;;;3.55;;
51006;SDS011;37034;47.886;-3.904;2023-07-08T02:19:53;14.45;;;4.28;;
51006;SDS011;37034;47.886;-3.904;2023-07-08T02:22:19;11.48;;;3.47;;
51006;SDS011;37034;47.886;-3.904;2023-07-08T02:24:45;8.77;;;3.25;;
51006;SDS011;37034;47.886;-3.904;2023-07-08T02:27:11;9.45;;;3.25;;
51006;SDS011;37034;47.886;-3.904;2023-07-08T02:29:37;11.65;;;3.35;;
51006;SDS011;37034;47.886;-3.904;2023-07-08T02:34:29;11.35;;;3.60;;
51006;SDS011;37034;47.886;-3.904;2023-07-08T02:36:54;10.15;;;3.85;;
51006;SDS011;37034;47.886;-3.904;2023-07-08T02:41:47;13.07;;;4.07;;
51006;SDS011;37034;47.886;-3.904;2023-07-08T02:44:12;11.43;;;3.60;;
51006;SDS011;37034;47.886;-3.904;2023-07-08T02:46:38;9.45;;;3.10;;
51006;SDS011;37034;47.886;-3.904;2023-07-08T02:49:04;9.60;;;3.55;;
51006;SDS011;37034;47.886;-3.904;2023-07-08T02:51:30;10.50;;;3.08;;
51006;SDS011;37034;47.886;-3.904;2023-07-08T02:53:56;10.73;;;3.58;;
51006;SDS011;37034;47.886;-3.904;2023-07-08T02:56:22;9.38;;;3.00;;
51006;SDS011;37034;47.886;-3.904;2023-07-08T02:58:48;12.90;;;3.35;;
51006;SDS011;37034;47.886;-3.904;2023-07-08T03:01:14;9.43;;;3.58;;
51006;SDS011;37034;47.886;-3.904;2023-07-08T03:03:43;16.02;;;4.53;;
51006;SDS011;37034;47.886;-3.904;2023-07-08T03:06:10;15.00;;;3.40;;
51006;SDS011;37034;47.886;-3.904;2023-07-08T03:08:36;14.88;;;3.10;;
51006;SDS011;37034;47.886;-3.904;2023-07-08T03:11:02;12.50;;;3.05;;
51006;SDS011;37034;47.886;-3.904;2023-07-08T03:13:29;14.45;;;3.33;;
51006;SDS011;37034;47.886;-3.904;2023-07-08T03:15:57;9.95;;;2.80;;
51006;SDS011;37034;47.886;-3.904;2023-07-08T03:18:27;13.43;;;3.47;;
51006;SDS011;37034;47.886;-3.904;2023-07-08T03:20:53;9.70;;;3.10;;
51006;SDS011;37034;47.886;-3.904;2023-07-08T03:23:21;9.30;;;3.05;;
51006;SDS011;37034;47.886;-3.904;2023-07-08T03:25:47;16.08;;;3.28;;
51006;SDS011;37034;47.886;-3.904;2023-07-08T03:28:13;10.73;;;3.08;;
51006;SDS011;37034;47.886;-3.904;2023-07-08T03:30:40;11.02;;;3.45;;
51006;SDS011;37034;47.886;-3.904;2023-07-08T03:33:07;11.75;;;3.30;;
51006;SDS011;37034;47.886;-3.904;2023-07-08T03:35:33;10.80;;;2.95;;
51006;SDS011;37034;47.886;-3.904;2023-07-08T03:37:59;9.85;;;3.08;;
51006;SDS011;37034;47.886;-3.904;2023-07-08T03:40:25;8.45;;;3.08;;
51006;SDS011;37034;47.886;-3.904;2023-07-08T03:42:51;11.18;;;2.88;;
51006;SDS011;37034;47.886;-3.904;2023-07-08T03:45:16;9.15;;;2.88;;
51006;SDS011;37034;47.886;-3.904;2023-07-08T03:47:42;11.18;;;3.00;;
51006;SDS011;37034;47.886;-3.904;2023-07-08T03:50:26;11.90;;;2.78;;
51006;SDS011;37034;47.886;-3.904;2023-07-08T03:52:52;11.15;;;2.88;;
51006;SDS011;37034;47.886;-3.904;2023-07-08T03:55:19;11.73;;;2.70;;
51006;SDS011;37034;47.886;-3.904;2023-07-08T03:57:45;15.13;;;2.80;;
51006;SDS011;37034;47.886;-3.904;2023-07-08T04:00:11;10.55;;;2.85;;
51006;SDS011;37034;47.886;-3.904;2023-07-08T04:02:38;14.18;;;2.97;;
51006;SDS011;37034;47.886;-3.904;2023-07-08T04:05:05;10.05;;;2.35;;
51006;SDS011;37034;47.886;-3.904;2023-07-08T04:07:31;11.65;;;2.90;;
51006;SDS011;37034;47.886;-3.904;2023-07-08T04:09:58;7.80;;;2.78;;
51006;SDS011;37034;47.886;-3.904;2023-07-08T04:12:24;8.35;;;2.80;;
51006;SDS011;37034;47.886;-3.904;2023-07-08T04:14:49;10.13;;;2.75;;
51006;SDS011;37034;47.886;-3.904;2023-07-08T04:17:15;11.85;;;2.53;;
51006;SDS011;37034;47.886;-3.904;2023-07-08T04:19:43;10.30;;;2.80;;
51006;SDS011;37034;47.886;-3.904;2023-07-08T04:22:10;11.82;;;3.38;;
51006;SDS011;37034;47.886;-3.904;2023-07-08T04:24:36;10.18;;;2.80;;
51006;SDS011;37034;47.886;-3.904;2023-07-08T04:27:02;12.55;;;2.92;;
51006;SDS011;37034;47.886;-3.904;2023-07-08T04:29:28;16.17;;;3.40;;
51006;SDS011;37034;47.886;-3.904;2023-07-08T04:31:53;9.75;;;2.60;;
51006;SDS011;37034;47.886;-3.904;2023-07-08T04:34:19;11.85;;;2.70;;
51006;SDS011;37034;47.886;-3.904;2023-07-08T04:36:45;10.95;;;2.90;;
51006;SDS011;37034;47.886;-3.904;2023-07-08T04:39:11;11.32;;;3.13;;
51006;SDS011;37034;47.886;-3.904;2023-07-08T04:41:38;13.13;;;2.90;;
51006;SDS011;37034;47.886;-3.904;2023-07-08T04:44:12;11.75;;;2.97;;
51006;SDS011;37034;47.886;-3.904;2023-07-08T04:46:44;9.30;;;3.38;;
51006;SDS011;37034;47.886;-3.904;2023-07-08T04:49:10;13.68;;;2.97;;
51006;SDS011;37034;47.886;-3.904;2023-07-08T04:51:36;11.13;;;3.00;;
51006;SDS011;37034;47.886;-3.904;2023-07-08T04:54:02;10.73;;;3.08;;
51006;SDS011;37034;47.886;-3.904;2023-07-08T04:59:08;7.95;;;2.92;;
51006;SDS011;37034;47.886;-3.904;2023-07-08T05:01:35;12.40;;;3.08;;
51006;SDS011;37034;47.886;-3.904;2023-07-08T05:04:01;10.05;;;2.80;;
51006;SDS011;37034;47.886;-3.904;2023-07-08T05:06:27;13.50;;;3.65;;
51006;SDS011;37034;47.886;-3.904;2023-07-08T05:08:53;9.60;;;3.58;;
51006;SDS011;37034;47.886;-3.904;2023-07-08T05:11:19;11.65;;;3.60;;
51006;SDS011;37034;47.886;-3.904;2023-07-08T05:13:45;11.45;;;2.97;;
51006;SDS011;37034;47.886;-3.904;2023-07-08T05:16:11;13.18;;;3.45;;
51006;SDS011;37034;47.886;-3.904;2023-07-08T05:18:36;8.18;;;2.85;;
51006;SDS011;37034;47.886;-3.904;2023-07-08T05:21:02;15.15;;;3.15;;
51006;SDS011;37034;47.886;-3.904;2023-07-08T05:23:28;12.38;;;3.20;;
51006;SDS011;37034;47.886;-3.904;2023-07-08T05:25:54;16.88;;;3.15;;
51006;SDS011;37034;47.886;-3.904;2023-07-08T05:28:19;12.70;;;3.00;;
51006;SDS011;37034;47.886;-3.904;2023-07-08T05:30:52;13.05;;;3.58;;
51006;SDS011;37034;47.886;-3.904;2023-07-08T05:33:19;13.70;;;3.13;;
51006;SDS011;37034;47.886;-3.904;2023-07-08T05:35:45;10.45;;;3.45;;
51006;SDS011;37034;47.886;-3.904;2023-07-08T05:38:10;11.93;;;2.70;;
51006;SDS011;37034;47.886;-3.904;2023-07-08T05:40:36;13.40;;;3.42;;
51006;SDS011;37034;47.886;-3.904;2023-07-08T05:43:02;8.27;;;2.72;;
51006;SDS011;37034;47.886;-3.904;2023-07-08T05:45:28;13.80;;;3.33;;
51006;SDS011;37034;47.886;-3.904;2023-07-08T05:47:53;14.95;;;3.38;;
51006;SDS011;37034;47.886;-3.904;2023-07-08T05:50:19;16.33;;;2.83;;
51006;SDS011;37034;47.886;-3.904;2023-07-08T05:52:44;11.27;;;3.03;;
51006;SDS011;37034;47.886;-3.904;2023-07-08T05:55:10;18.20;;;3.22;;
51006;SDS011;37034;47.886;-3.904;2023-07-08T05:57:36;11.10;;;3.47;;
51006;SDS011;37034;47.886;-3.904;2023-07-08T06:00:01;14.25;;;3.20;;
51006;SDS011;37034;47.886;-3.904;2023-07-08T06:02:28;13.75;;;3.25;;
51006;SDS011;37034;47.886;-3.904;2023-07-08T06:04:54;16.42;;;3.70;;
51006;SDS011;37034;47.886;-3.904;2023-07-08T06:07:19;22.08;;;4.22;;
51006;SDS011;37034;47.886;-3.904;2023-07-08T06:09:45;14.20;;;2.90;;
51006;SDS011;37034;47.886;-3.904;2023-07-08T06:12:11;14.60;;;2.95;;
51006;SDS011;37034;47.886;-3.904;2023-07-08T06:14:36;10.85;;;3.05;;
51006;SDS011;37034;47.886;-3.904;2023-07-08T06:17:03;13.80;;;3.55;;
51006;SDS011;37034;47.886;-3.904;2023-07-08T06:19:30;9.77;;;2.83;;
51006;SDS011;37034;47.886;-3.904;2023-07-08T06:21:55;9.10;;;2.72;;
51006;SDS011;37034;47.886;-3.904;2023-07-08T06:24:21;11.77;;;2.70;;
51006;SDS011;37034;47.886;-3.904;2023-07-08T06:26:47;10.70;;;2.70;;
51006;SDS011;37034;47.886;-3.904;2023-07-08T06:29:12;12.02;;;3.30;;
51006;SDS011;37034;47.886;-3.904;2023-07-08T06:31:38;12.43;;;2.65;;
51006;SDS011;37034;47.886;-3.904;2023-07-08T06:34:04;14.88;;;3.10;;
51006;SDS011;37034;47.886;-3.904;2023-07-08T06:36:30;11.15;;;2.95;;
51006;SDS011;37034;47.886;-3.904;2023-07-08T06:38:56;10.80;;;2.67;;
51006;SDS011;37034;47.886;-3.904;2023-07-08T06:41:21;10.57;;;2.90;;
51006;SDS011;37034;47.886;-3.904;2023-07-08T06:43:47;10.05;;;2.70;;
51006;SDS011;37034;47.886;-3.904;2023-07-08T06:46:13;12.15;;;3.13;;
51006;SDS011;37034;47.886;-3.904;2023-07-08T06:48:39;5.70;;;2.60;;
51006;SDS011;37034;47.886;-3.904;2023-07-08T06:51:04;10.40;;;3.33;;
51006;SDS011;37034;47.886;-3.904;2023-07-08T06:53:31;14.88;;;3.22;;
51006;SDS011;37034;47.886;-3.904;2023-07-08T06:55:57;15.75;;;3.20;;
51006;SDS011;37034;47.886;-3.904;2023-07-08T06:58:23;7.63;;;2.38;;
51006;SDS011;37034;47.886;-3.904;2023-07-08T07:00:48;7.00;;;2.35;;
51006;SDS011;37034;47.886;-3.904;2023-07-08T07:03:14;13.70;;;2.90;;
51006;SDS011;37034;47.886;-3.904;2023-07-08T07:05:40;10.90;;;2.58;;
51006;SDS011;37034;47.886;-3.904;2023-07-08T07:08:05;14.27;;;3.08;;
51006;SDS011;37034;47.886;-3.904;2023-07-08T07:10:33;9.45;;;2.50;;
51006;SDS011;37034;47.886;-3.904;2023-07-08T07:12:59;13.23;;;3.45;;
51006;SDS011;37034;47.886;-3.904;2023-07-08T07:15:25;9.55;;;2.83;;
51006;SDS011;37034;47.886;-3.904;2023-07-08T07:17:50;9.88;;;2.55;;
51006;SDS011;37034;47.886;-3.904;2023-07-08T07:20:16;12.30;;;3.25;;
51006;SDS011;37034;47.886;-3.904;2023-07-08T07:22:42;13.90;;;2.83;;
51006;SDS011;37034;47.886;-3.904;2023-07-08T07:25:08;15.60;;;3.05;;
51006;SDS011;37034;47.886;-3.904;2023-07-08T07:27:34;13.38;;;3.13;;
51006;SDS011;37034;47.886;-3.904;2023-07-08T07:29:59;16.27;;;3.22;;
51006;SDS011;37034;47.886;-3.904;2023-07-08T07:32:25;9.75;;;2.92;;
51006;SDS011;37034;47.886;-3.904;2023-07-08T07:37:18;12.38;;;2.85;;
51006;SDS011;37034;47.886;-3.904;2023-07-08T07:39:45;12.25;;;2.85;;
51006;SDS011;37034;47.886;-3.904;2023-07-08T07:42:13;10.20;;;3.30;;
51006;SDS011;37034;47.886;-3.904;2023-07-08T07:44:40;11.73;;;3.15;;
51006;SDS011;37034;47.886;-3.904;2023-07-08T07:47:06;13.82;;;3.08;;
51006;SDS011;37034;47.886;-3.904;2023-07-08T07:49:33;11.30;;;3.25;;
51006;SDS011;37034;47.886;-3.904;2023-07-08T07:51:58;12.40;;;3.30;;
51006;SDS011;37034;47.886;-3.904;2023-07-08T07:54:24;15.70;;;2.80;;
51006;SDS011;37034;47.886;-3.904;2023-07-08T07:56:50;16.45;;;3.35;;
51006;SDS011;37034;47.886;-3.904;2023-07-08T07:59:16;10.13;;;3.08;;
51006;SDS011;37034;47.886;-3.904;2023-07-08T08:01:42;19.52;;;3.25;;
51006;SDS011;37034;47.886;-3.904;2023-07-08T08:04:09;19.42;;;3.70;;
51006;SDS011;37034;47.886;-3.904;2023-07-08T08:06:35;23.17;;;3.75;;
51006;SDS011;37034;47.886;-3.904;2023-07-08T08:09:01;20.90;;;4.50;;
51006;SDS011;37034;47.886;-3.904;2023-07-08T08:11:28;18.33;;;4.22;;
51006;SDS011;37034;47.886;-3.904;2023-07-08T08:13:53;28.15;;;4.75;;
51006;SDS011;37034;47.886;-3.904;2023-07-08T08:16:19;21.15;;;4.95;;
51006;SDS011;37034;47.886;-3.904;2023-07-08T08:18:46;26.90;;;4.53;;
51006;SDS011;37034;47.886;-3.904;2023-07-08T08:21:11;31.65;;;4.75;;
51006;SDS011;37034;47.886;-3.904;2023-07-08T08:23:37;32.90;;;5.03;;
51006;SDS011;37034;47.886;-3.904;2023-07-08T08:26:03;25.27;;;5.00;;
51006;SDS011;37034;47.886;-3.904;2023-07-08T08:28:28;26.15;;;5.47;;
51006;SDS011;37034;47.886;-3.904;2023-07-08T08:30:54;32.03;;;5.90;;
51006;SDS011;37034;47.886;-3.904;2023-07-08T08:33:20;29.27;;;5.78;;
51006;SDS011;37034;47.886;-3.904;2023-07-08T08:35:46;32.15;;;6.05;;
51006;SDS011;37034;47.886;-3.904;2023-07-08T08:38:12;35.33;;;5.90;;
51006;SDS011;37034;47.886;-3.904;2023-07-08T08:40:41;38.55;;;5.28;;
51006;SDS011;37034;47.886;-3.904;2023-07-08T08:43:12;31.38;;;5.40;;
51006;SDS011;37034;47.886;-3.904;2023-07-08T08:45:48;33.95;;;6.50;;
51006;SDS011;37034;47.886;-3.904;2023-07-08T08:48:21;36.17;;;5.95;;
51006;SDS011;37034;47.886;-3.904;2023-07-08T08:53:25;34.03;;;6.15;;
51006;SDS011;37034;47.886;-3.904;2023-07-08T08:58:43;30.67;;;6.13;;
51006;SDS011;37034;47.886;-3.904;2023-07-08T09:01:13;35.47;;;5.53;;
51006;SDS011;37034;47.886;-3.904;2023-07-08T09:03:43;25.30;;;4.88;;
51006;SDS011;37034;47.886;-3.904;2023-07-08T09:08:51;23.63;;;4.13;;
51006;SDS011;37034;47.886;-3.904;2023-07-08T09:14:03;25.85;;;4.80;;
51006;SDS011;37034;47.886;-3.904;2023-07-08T09:16:39;19.92;;;4.38;;
51006;SDS011;37034;47.886;-3.904;2023-07-08T09:19:18;18.17;;;4.07;;
51006;SDS011;37034;47.886;-3.904;2023-07-08T09:24:40;27.23;;;4.90;;
51006;SDS011;37034;47.886;-3.904;2023-07-08T09:27:12;23.25;;;4.60;;
51006;SDS011;37034;47.886;-3.904;2023-07-08T09:29:38;20.92;;;4.18;;
51006;SDS011;37034;47.886;-3.904;2023-07-08T09:32:14;27.35;;;4.45;;
51006;SDS011;37034;47.886;-3.904;2023-07-08T09:34:46;21.90;;;4.20;;
51006;SDS011;37034;47.886;-3.904;2023-07-08T09:37:26;26.92;;;5.00;;
51006;SDS011;37034;47.886;-3.904;2023-07-08T09:39:57;22.08;;;4.22;;
51006;SDS011;37034;47.886;-3.904;2023-07-08T09:42:28;20.38;;;4.40;;
51006;SDS011;37034;47.886;-3.904;2023-07-08T09:44:57;24.00;;;4.15;;
51006;SDS011;37034;47.886;-3.904;2023-07-08T09:47:34;28.88;;;5.40;;
51006;SDS011;37034;47.886;-3.904;2023-07-08T09:50:03;28.63;;;4.97;;
51006;SDS011;37034;47.886;-3.904;2023-07-08T09:52:37;31.30;;;5.70;;
51006;SDS011;37034;47.886;-3.904;2023-07-08T09:55:03;27.17;;;5.35;;
51006;SDS011;37034;47.886;-3.904;2023-07-08T09:57:30;28.77;;;5.60;;
51006;SDS011;37034;47.886;-3.904;2023-07-08T09:59:58;25.25;;;4.65;;
51006;SDS011;37034;47.886;-3.904;2023-07-08T10:05:42;20.98;;;4.60;;
51006;SDS011;37034;47.886;-3.904;2023-07-08T10:08:18;22.17;;;4.20;;
51006;SDS011;37034;47.886;-3.904;2023-07-08T10:10:46;20.30;;;3.85;;
51006;SDS011;37034;47.886;-3.904;2023-07-08T10:13:20;19.95;;;3.88;;
51006;SDS011;37034;47.886;-3.904;2023-07-08T10:15:53;24.65;;;4.43;;
51006;SDS011;37034;47.886;-3.904;2023-07-08T10:18:27;20.20;;;3.83;;
51006;SDS011;37034;47.886;-3.904;2023-07-08T10:20:57;20.63;;;3.97;;
51006;SDS011;37034;47.886;-3.904;2023-07-08T10:26:24;16.17;;;3.17;;
51006;SDS011;37034;47.886;-3.904;2023-07-08T10:29:02;16.63;;;3.75;;
51006;SDS011;37034;47.886;-3.904;2023-07-08T10:47:42;13.48;;;3.22;;
51006;SDS011;37034;47.886;-3.904;2023-07-08T10:50:21;14.45;;;3.55;;
51006;SDS011;37034;47.886;-3.904;2023-07-08T10:56:15;16.70;;;3.88;;
51006;SDS011;37034;47.886;-3.904;2023-07-08T11:04:26;17.88;;;3.63;;
51006;SDS011;37034;47.886;-3.904;2023-07-08T11:09:54;22.35;;;4.03;;
51006;SDS011;37034;47.886;-3.904;2023-07-08T11:12:26;19.08;;;4.45;;
51006;SDS011;37034;47.886;-3.904;2023-07-08T11:15:05;19.15;;;4.25;;
51006;SDS011;37034;47.886;-3.904;2023-07-08T11:17:42;18.60;;;3.80;;
51006;SDS011;37034;47.886;-3.904;2023-07-08T11:20:34;20.13;;;4.47;;
51006;SDS011;37034;47.886;-3.904;2023-07-08T11:23:28;19.02;;;4.47;;
51006;SDS011;37034;47.886;-3.904;2023-07-08T11:26:16;23.25;;;4.13;;
51006;SDS011;37034;47.886;-3.904;2023-07-08T11:28:43;22.38;;;4.55;;
51006;SDS011;37034;47.886;-3.904;2023-07-08T11:33:35;22.33;;;4.53;;
51006;SDS011;37034;47.886;-3.904;2023-07-08T11:36:02;18.42;;;3.88;;
51006;SDS011;37034;47.886;-3.904;2023-07-08T11:38:31;21.50;;;4.43;;
51006;SDS011;37034;47.886;-3.904;2023-07-08T11:41:00;18.85;;;3.80;;
51006;SDS011;37034;47.886;-3.904;2023-07-08T11:44:10;21.30;;;4.57;;
51006;SDS011;37034;47.886;-3.904;2023-07-08T11:46:30;19.92;;;3.88;;
51006;SDS011;37034;47.886;-3.904;2023-07-08T11:49:02;19.70;;;4.75;;
51006;SDS011;37034;47.886;-3.904;2023-07-08T11:51:34;22.35;;;4.85;;
51006;SDS011;37034;47.886;-3.904;2023-07-08T11:54:17;24.00;;;4.80;;
51006;SDS011;37034;47.886;-3.904;2023-07-08T11:57:00;21.27;;;4.15;;
51006;SDS011;37034;47.886;-3.904;2023-07-08T11:59:31;20.85;;;3.97;;
51006;SDS011;37034;47.886;-3.904;2023-07-08T12:02:11;20.33;;;4.55;;
51006;SDS011;37034;47.886;-3.904;2023-07-08T12:04:56;23.40;;;5.20;;
51006;SDS011;37034;47.886;-3.904;2023-07-08T12:07:52;20.05;;;4.45;;
51006;SDS011;37034;47.886;-3.904;2023-07-08T12:13:08;19.50;;;4.13;;
51006;SDS011;37034;47.886;-3.904;2023-07-08T12:15:39;17.42;;;4.47;;
51006;SDS011;37034;47.886;-3.904;2023-07-08T12:18:16;23.33;;;5.47;;
51006;SDS011;37034;47.886;-3.904;2023-07-08T12:20:56;21.23;;;4.93;;
51006;SDS011;37034;47.886;-3.904;2023-07-08T12:23:24;17.67;;;4.13;;
51006;SDS011;37034;47.886;-3.904;2023-07-08T12:25:51;16.92;;;3.40;;
51006;SDS011;37034;47.886;-3.904;2023-07-08T12:28:19;20.05;;;4.40;;
51006;SDS011;37034;47.886;-3.904;2023-07-08T12:30:46;18.40;;;4.63;;
51006;SDS011;37034;47.886;-3.904;2023-07-08T12:33:22;17.63;;;4.13;;
51006;SDS011;37034;47.886;-3.904;2023-07-08T12:35:55;14.00;;;3.35;;
51006;SDS011;37034;47.886;-3.904;2023-07-08T12:38:23;19.63;;;4.00;;
51006;SDS011;37034;47.886;-3.904;2023-07-08T12:41:14;19.60;;;4.55;;
51006;SDS011;37034;47.886;-3.904;2023-07-08T12:43:46;19.92;;;4.32;;
51006;SDS011;37034;47.886;-3.904;2023-07-08T12:46:13;20.40;;;4.70;;
51006;SDS011;37034;47.886;-3.904;2023-07-08T12:48:40;18.13;;;4.35;;
51006;SDS011;37034;47.886;-3.904;2023-07-08T12:51:06;19.67;;;4.00;;
51006;SDS011;37034;47.886;-3.904;2023-07-08T12:53:38;16.98;;;3.67;;
51006;SDS011;37034;47.886;-3.904;2023-07-08T12:56:04;14.93;;;3.13;;
51006;SDS011;37034;47.886;-3.904;2023-07-08T12:58:31;20.10;;;4.32;;
51006;SDS011;37034;47.886;-3.904;2023-07-08T13:01:02;20.23;;;3.95;;
51006;SDS011;37034;47.886;-3.904;2023-07-08T13:03:30;14.95;;;3.67;;
51006;SDS011;37034;47.886;-3.904;2023-07-08T13:05:59;19.02;;;3.95;;
51006;SDS011;37034;47.886;-3.904;2023-07-08T13:08:27;14.43;;;3.38;;
51006;SDS011;37034;47.886;-3.904;2023-07-08T13:10:59;25.85;;;4.15;;
51006;SDS011;37034;47.886;-3.904;2023-07-08T13:13:27;20.40;;;4.20;;
51006;SDS011;37034;47.886;-3.904;2023-07-08T13:15:56;18.83;;;3.85;;
51006;SDS011;37034;47.886;-3.904;2023-07-08T13:18:33;16.17;;;4.50;;
51006;SDS011;37034;47.886;-3.904;2023-07-08T13:21:00;16.85;;;3.67;;
51006;SDS011;37034;47.886;-3.904;2023-07-08T13:23:26;19.33;;;4.57;;
51006;SDS011;37034;47.886;-3.904;2023-07-08T13:25:53;15.32;;;3.83;;
51006;SDS011;37034;47.886;-3.904;2023-07-08T13:28:22;14.52;;;3.58;;
51006;SDS011;37034;47.886;-3.904;2023-07-08T13:30:51;16.67;;;3.78;;
51006;SDS011;37034;47.886;-3.904;2023-07-08T13:33:20;18.75;;;4.10;;
51006;SDS011;37034;47.886;-3.904;2023-07-08T13:35:47;16.42;;;4.15;;
51006;SDS011;37034;47.886;-3.904;2023-07-08T13:38:15;20.33;;;4.72;;
51006;SDS011;37034;47.886;-3.904;2023-07-08T13:40:47;15.00;;;3.97;;
51006;SDS011;37034;47.886;-3.904;2023-07-08T13:43:15;17.05;;;3.97;;
51006;SDS011;37034;47.886;-3.904;2023-07-08T13:45:44;17.25;;;4.57;;
51006;SDS011;37034;47.886;-3.904;2023-07-08T13:50:53;17.58;;;3.72;;
51006;SDS011;37034;47.886;-3.904;2023-07-08T13:56:10;13.95;;;3.30;;
51006;SDS011;37034;47.886;-3.904;2023-07-08T13:58:45;14.70;;;3.75;;
51006;SDS011;37034;47.886;-3.904;2023-07-08T14:01:20;15.50;;;4.13;;
51006;SDS011;37034;47.886;-3.904;2023-07-08T14:03:48;14.52;;;4.00;;
51006;SDS011;37034;47.886;-3.904;2023-07-08T14:06:22;17.83;;;3.70;;
51006;SDS011;37034;47.886;-3.904;2023-07-08T14:08:53;12.75;;;3.45;;
51006;SDS011;37034;47.886;-3.904;2023-07-08T14:11:20;12.18;;;2.83;;
51006;SDS011;37034;47.886;-3.904;2023-07-08T14:13:45;15.23;;;3.38;;
51006;SDS011;37034;47.886;-3.904;2023-07-08T14:18:55;14.52;;;3.38;;
51006;SDS011;37034;47.886;-3.904;2023-07-08T14:21:23;17.10;;;3.78;;
51006;SDS011;37034;47.886;-3.904;2023-07-08T14:23:48;21.90;;;3.92;;
51006;SDS011;37034;47.886;-3.904;2023-07-08T14:26:14;19.38;;;3.67;;
51006;SDS011;37034;47.886;-3.904;2023-07-08T14:28:40;18.25;;;3.60;;
51006;SDS011;37034;47.886;-3.904;2023-07-08T14:31:12;13.57;;;3.40;;
51006;SDS011;37034;47.886;-3.904;2023-07-08T14:33:42;15.68;;;3.92;;
51006;SDS011;37034;47.886;-3.904;2023-07-08T14:36:11;17.15;;;3.88;;
51006;SDS011;37034;47.886;-3.904;2023-07-08T14:38:39;21.83;;;4.13;;
51006;SDS011;37034;47.886;-3.904;2023-07-08T14:41:05;20.08;;;4.32;;
51006;SDS011;37034;47.886;-3.904;2023-07-08T14:43:32;19.70;;;4.13;;
51006;SDS011;37034;47.886;-3.904;2023-07-08T14:45:59;19.15;;;3.72;;
51006;SDS011;37034;47.886;-3.904;2023-07-08T14:48:28;18.98;;;4.43;;
51006;SDS011;37034;47.886;-3.904;2023-07-08T14:50:55;21.05;;;4.57;;
51006;SDS011;37034;47.886;-3.904;2023-07-08T14:53:21;20.55;;;4.00;;
51006;SDS011;37034;47.886;-3.904;2023-07-08T14:55:48;19.73;;;4.50;;
51006;SDS011;37034;47.886;-3.904;2023-07-08T14:58:38;13.23;;;3.53;;
51006;SDS011;37034;47.886;-3.904;2023-07-08T15:01:07;16.50;;;4.07;;
51006;SDS011;37034;47.886;-3.904;2023-07-08T15:03:36;15.65;;;3.63;;
51006;SDS011;37034;47.886;-3.904;2023-07-08T15:06:02;17.83;;;3.60;;
51006;SDS011;37034;47.886;-3.904;2023-07-08T15:08:28;16.92;;;4.20;;
51006;SDS011;37034;47.886;-3.904;2023-07-08T15:10:53;15.38;;;3.75;;
51006;SDS011;37034;47.886;-3.904;2023-07-08T15:13:20;18.73;;;3.67;;
51006;SDS011;37034;47.886;-3.904;2023-07-08T15:15:50;20.05;;;3.85;;
51006;SDS011;37034;47.886;-3.904;2023-07-08T15:18:16;18.55;;;3.63;;
51006;SDS011;37034;47.886;-3.904;2023-07-08T15:20:44;13.50;;;3.30;;
51006;SDS011;37034;47.886;-3.904;2023-07-08T15:23:10;14.57;;;2.92;;
51006;SDS011;37034;47.886;-3.904;2023-07-08T15:25:37;19.77;;;3.40;;
51006;SDS011;37034;47.886;-3.904;2023-07-08T15:28:05;13.15;;;3.15;;
51006;SDS011;37034;47.886;-3.904;2023-07-08T15:30:32;15.27;;;3.63;;
51006;SDS011;37034;47.886;-3.904;2023-07-08T15:32:58;13.95;;;3.42;;
51006;SDS011;37034;47.886;-3.904;2023-07-08T15:35:27;13.32;;;3.40;;
51006;SDS011;37034;47.886;-3.904;2023-07-08T15:37:57;15.60;;;3.85;;
51006;SDS011;37034;47.886;-3.904;2023-07-08T15:40:24;16.65;;;3.47;;
51006;SDS011;37034;47.886;-3.904;2023-07-08T15:42:54;20.13;;;3.88;;
51006;SDS011;37034;47.886;-3.904;2023-07-08T15:45:25;16.42;;;4.32;;
51006;SDS011;37034;47.886;-3.904;2023-07-08T15:47:53;18.35;;;4.20;;
51006;SDS011;37034;47.886;-3.904;2023-07-08T15:50:23;17.17;;;3.95;;